• Join FlightAware (Why Join?)
  • Login
  • US Flag 
05:21AM EDT


 

Airport Tracker/Info


-or-


 

Live Flight TrackerFlight Track Log ✈ N843NN ✈ 27-Apr-2012 ✈ KMIA - KPHL

Flight Track Log - Related Links

Times and Time Zones

All times are in EDT time to prevent confusion due to time zone crossing. See the N843NN flight status page for this flight to view local times or setup timezone preferences in your user account.

Time Position Orientation Groundspeed Altitude Reporting Facility
EDT Latitude Longitude Course Direction KTS MPH feet Rate Location/Type
10:16PM 25.8234 -80.2768 154° Southeast  Level FlightAware Approximate
10:16PM 25.7983 -80.2631 81° East 152 175 900  Level Miami Center
10:18PM 25.8108 -80.1711 80° East 227 261 3,400 1,920 Climbing Miami Center
10:19PM 25.8206 -80.1111 64° Northeast 248 285 5,200 2,340 Climbing Miami Center
10:20PM 25.8536 -80.0361 56° Northeast 284 327 7,600 2,640 Climbing Miami Center
10:21PM 25.8969 -79.9633 56° Northeast 279 321 10,600 2,460 Climbing Miami Center
10:22PM 25.9467 -79.8814 56° Northeast 290 334 12,600 2,520 Climbing Miami Center
10:23PM 25.9986 -79.7947 55° Northeast 315 362 15,700 2,760 Climbing Miami Center
10:24PM 26.0547 -79.7061 58° Northeast 336 387 18,100 2,520 Climbing Miami Center
10:25PM 26.1089 -79.6100 52° Northeast 351 404 20,700 2,220 Climbing Miami Center
10:26PM 26.1753 -79.5167 30° Northeast 371 427 22,700 1,920 Climbing Miami Center
10:27PM 26.2725 -79.4539 26° Northeast 377 434 24,700 1,860 Climbing Miami Center
10:28PM 26.3758 -79.3983 28° Northeast 403 464 26,400 1,620 Climbing Miami Center
10:29PM 26.4875 -79.3333 27° Northeast 434 499 28,000 1,260 Climbing Miami Center
10:30PM 26.6014 -79.2683 29° Northeast 439 505 28,900 1,080 Climbing Miami Center
10:31PM 26.7197 -79.1964 28° Northeast 461 531 30,200 1,200 Climbing Miami Center
10:32PM 26.8419 -79.1242 25° Northeast 477 549 31,300 1,260 Climbing Miami Center
10:33PM 26.9683 -79.0569 24° Northeast 490 564 32,800 1,320 Climbing Miami Center
10:34PM 27.0967 -78.9939 10° North 496 571 34,000 1,020 Climbing Miami Center
10:35PM 27.2244 -78.9683 10° North 504 580 34,900 900 Climbing Miami Center
10:36PM 27.3814 -78.9383 11° North 516 594 35,900 960 Climbing Miami Center
10:37PM 27.5261 -78.9081 North 522 601 36,900 900 Climbing Miami Center
10:38PM 27.6683 -78.8825 10° North 527 606 37,800 720 Climbing Miami Center
10:39PM 27.8003 -78.8567 10° North 521 600 38,400 600 Climbing Miami Center
10:40PM 27.9572 -78.8242 10° North 521 600 39,000 300 Climbing Miami Center
10:41PM 28.1039 -78.7961 10° North 521 600 39,000  Level Miami Center
10:42PM 28.2503 -78.7681 North 527 606 39,000 -60 Level Miami Center
10:43PM 28.3906 -78.7422 10° North 521 600 38,900  Descending Miami Center
10:44PM 28.5308 -78.7136 10° North 521 600 39,000  Climbing Miami Center
10:45PM 28.6731 -78.6853 North 514 592 38,900 -60 Descending Miami Center
10:46PM 28.8153 -78.6592 10° North 520 598 38,900  Level Miami Center
10:47PM 28.9514 -78.6306 North 508 585 39,000  Climbing Miami Center
10:48PM 29.0914 -78.6044 North 503 579 39,000  Level Miami Center
10:49PM 29.2294 -78.5781 13° North 503 579 39,000 -60 Level Miami Center
10:50PM 29.3592 -78.5442 North 503 579 38,900 -60 Descending Miami Center
10:51PM 29.4928 -78.5250 North 503 579 38,900  Level Miami Center
10:52PM 29.6328 -78.5031 12° North 504 580 38,900  Level Miami Center
10:53PM 29.8406 -78.4511 10° North 498 573 38,900  Level Jacksonville Center
10:54PM 29.9731 -78.4236 North 485 558 39,000  Climbing Jacksonville Center
10:55PM 30.1103 -78.4006 11° North 485 558 39,000  Level Jacksonville Center
10:56PM 30.2281 -78.3733 11° North 457 526 39,000  Level Jacksonville Center
10:57PM 30.3567 -78.3456 10° North 449 517 39,000  Level Jacksonville Center
10:58PM 30.4892 -78.3175 North 472 543 39,000 -60 Level Jacksonville Center
10:59PM 30.6239 -78.2919 11° North 477 549 38,900  Descending Jacksonville Center
11:00PM 30.7522 -78.2639 North 477 549 39,000  Climbing Jacksonville Center
11:01PM 30.8869 -78.2378 North 467 537 38,900  Descending Jacksonville Center
11:02PM 31.0200 -78.2192 10° North 479 551 39,000  Climbing Jacksonville Center
11:03PM 31.1442 -78.1936 10° North 478 550 39,000  Level Jacksonville Center
11:04PM 31.2664 -78.1681 10° North 464 534 39,000  Level Jacksonville Center
11:05PM 31.3886 -78.1425 North 450 518 39,000  Level Jacksonville Center
11:06PM 31.5131 -78.1189 10° North 444 511 39,000  Level Jacksonville Center
11:07PM 31.6353 -78.0933 10° North 444 511 39,000  Level Jacksonville Center
11:08PM 31.7614 -78.0672 12° North 444 511 39,000  Level Jacksonville Center
11:09PM 31.8856 -78.0361 North 444 511 39,000  Level Jacksonville Center
11:10PM 32.0100 -78.0125 12° North 444 511 39,000  Level Jacksonville Center
11:11PM 32.1319 -77.9814 North 444 511 39,000  Level Jacksonville Center
11:12PM 32.2542 -77.9603 10° North 444 511 39,000  Level Jacksonville Center
11:13PM 32.3806 -77.9336 10° North 444 511 39,000  Level Jacksonville Center
11:14PM 32.5025 -77.9072 10° North 444 511 39,000  Level Jacksonville Center
11:15PM 32.6247 -77.8808 10° North 444 511 39,000  Level Jacksonville Center
11:16PM 32.7489 -77.8542 10° North 444 511 39,000  Level Jacksonville Center
11:17PM 32.8731 -77.8275 11° North 444 511 39,000  Level Jacksonville Center
11:18PM 32.9950 -77.7983 10° North 444 511 39,000  Level Jacksonville Center
11:19PM 33.1169 -77.7717 10° North 444 511 39,000  Level Jacksonville Center
11:22PM 33.4147 -77.7064 10° North 433 498 39,000  Level Washington Center
11:23PM 33.5361 -77.6794 10° North 433 498 39,000  Level Washington Center
11:23PM 33.6597 -77.6525 11° North 438 504 39,000  Level Washington Center
11:25PM 33.7833 -77.6231 11° North 438 504 39,000  Level Washington Center
11:26PM 33.8964 -77.5958 10° North 450 518 39,000  Level Washington Center
11:27PM 34.0242 -77.5689 North 455 524 39,000  Level Washington Center
11:28PM 34.1475 -77.5442 North 455 524 39,000  Level Washington Center
11:29PM 34.2711 -77.5194 10° North 450 518 39,000  Level Washington Center
11:30PM 34.3947 -77.4922 10° North 450 518 39,000  Level Washington Center
11:31PM 34.5139 -77.4672 18° North 450 518 39,000 -420 Level Washington Center
11:32PM 34.6314 -77.4219 24° Northeast 444 511 38,200 -900 Descending Washington Center
11:33PM 34.7431 -77.3614 26° Northeast 444 511 37,200 -1,080 Descending Washington Center
11:33PM 34.8692 -77.2881 24° Northeast 444 511 36,200 -900 Descending Washington Center
11:35PM 34.9764 -77.2294 24° Northeast 444 511 35,400 -600 Descending Washington Center
11:36PM 35.0900 -77.1683 24° Northeast 444 511 35,000 -240 Descending Washington Center
11:37PM 35.2056 -77.1044 24° Northeast 444 511 35,000  Level Washington Center
11:38PM 35.3169 -77.0431 24° Northeast 449 517 35,000  Level Washington Center
11:39PM 35.4367 -76.9764 24° Northeast 449 517 35,000  Level Washington Center
11:39PM 35.5519 -76.9144 25° Northeast 444 511 35,000  Level Washington Center
11:41PM 35.6592 -76.8525 24° Northeast 449 517 35,000 -60 Level Washington Center
11:42PM 35.7767 -76.7878 24° Northeast 441 507 34,900  Descending Washington Center
11:43PM 35.8919 -76.7253 25° Northeast 441 507 35,000  Climbing Washington Center
11:43PM 36.0094 -76.6575 25° Northeast 446 513 35,000 -60 Level Washington Center
11:44PM 36.1247 -76.5922 24° Northeast 451 519 34,900  Descending Washington Center
11:46PM 36.2381 -76.5294 25° Northeast 451 519 35,000  Climbing Washington Center
11:47PM 36.3553 -76.4611 24° Northeast 451 519 35,000  Level Washington Center
11:48PM 36.4706 -76.3978 25° Northeast 445 512 35,000  Level Washington Center
11:52PM 36.9585 -76.1133 25° Northeast 460 529 35,000  Level FlightAware ADS-B
11:52PM 37.0173 -76.0790 25° Northeast 460 529 35,000  Level FlightAware ADS-B
11:53PM 37.0763 -76.0446 25° Northeast 461 531 35,000  Level FlightAware ADS-B
11:53PM 37.1350 -76.0103 25° Northeast 459 528 35,000  Level FlightAware ADS-B
11:54PM 37.1932 -75.9762 25° Northeast 458 527 35,000  Level FlightAware ADS-B
11:54PM 37.2514 -75.9422 25° Northeast 459 528 35,000  Level FlightAware ADS-B
11:55PM 37.3087 -75.9084 25° Northeast 455 524 35,000  Level FlightAware ADS-B
11:55PM 37.3667 -75.8743 25° Northeast 453 521 35,000  Level FlightAware ADS-B
11:56PM 37.4243 -75.8404 25° Northeast 452 520 35,000  Level FlightAware ADS-B
11:56PM 37.4815 -75.8066 25° Northeast 452 520 35,000  Level FlightAware ADS-B
11:57PM 37.6217 -75.7239 22° Northeast 452 520 35,000  Level FlightAware ADS-B
11:58PM 37.6432 -75.7131 17° North 444 511 35,000 -720 Level FlightAware ADS-B
11:58PM 37.7051 -75.6889 17° North 436 502 34,500 -900 Descending FlightAware ADS-B
11:59PM 37.7635 -75.6668 17° North 438 504 34,100 -900 Descending FlightAware ADS-B
11:59PM 37.8223 -75.6441 17° North 439 505 33,600 -1,020 Descending FlightAware ADS-B
12:00AM 37.8815 -75.6215 17° North 442 509 33,100 -1,020 Descending FlightAware ADS-B
12:00AM 37.9402 -75.5989 17° North 442 509 32,600 -1,020 Descending FlightAware ADS-B
12:01AM 37.9990 -75.5761 17° North 440 506 32,100 -1,020 Descending FlightAware ADS-B
12:01AM 38.0592 -75.5527 17° North 439 505 31,600 -1,020 Descending FlightAware ADS-B
12:02AM 38.1192 -75.5294 17° North 444 511 31,100 -480 Descending FlightAware ADS-B
12:02AM 38.2164 -75.4917 17° North 446 513 31,000 -120 Descending FlightAware ADS-B
12:03AM 38.2766 -75.4682 17° North 444 511 31,000  Level FlightAware ADS-B
12:03AM 38.3353 -75.4451 17° North 443 510 31,000 -120 Level FlightAware ADS-B
12:04AM 38.3941 -75.4222 17° North 429 494 30,900 -540 Descending FlightAware ADS-B
12:04AM 38.4527 -75.3991 17° North 402 463 30,500 -1,320 Descending FlightAware ADS-B
12:05AM 38.5095 -75.3771 17° North 391 450 29,500 -2,220 Descending FlightAware ADS-B
12:06AM 38.5627 -75.3565 17° North 396 456 28,200 -2,700 Descending FlightAware ADS-B
12:06AM 38.6167 -75.3355 17° North 400 460 26,800 -2,760 Descending FlightAware ADS-B
12:07AM 38.6699 -75.3145 18° North 403 464 25,400 -2,760 Descending FlightAware ADS-B
12:07AM 38.7243 -75.2925 17° North 404 465 24,000 -2,580 Descending FlightAware ADS-B
12:08AM 38.7776 -75.2711 17° North 397 457 22,800 -2,340 Descending FlightAware ADS-B
12:08AM 38.8301 -75.2504 17° North 390 449 21,700 -2,340 Descending FlightAware ADS-B
12:09AM 38.8815 -75.2302 17° North 382 440 20,500 -2,280 Descending FlightAware ADS-B
12:09AM 38.9324 -75.2098 17° North 375 432 19,400 -2,220 Descending FlightAware ADS-B
12:10AM 38.9827 -75.1899 17° North 369 425 18,300 -2,160 Descending FlightAware ADS-B
12:10AM 39.0383 -75.1679 17° North 366 421 17,100 -2,100 Descending FlightAware ADS-B
12:11AM 39.0894 -75.1476 17° North 359 413 16,000 -2,220 Descending FlightAware ADS-B
12:11AM 39.1377 -75.1282 17° North 357 411 14,800 -2,400 Descending FlightAware ADS-B
12:12AM 39.1853 -75.1091 17° North 355 409 13,600 -2,220 Descending FlightAware ADS-B
12:12AM 39.2330 -75.0900 17° North 349 402 12,600 -2,100 Descending FlightAware ADS-B
12:13AM 39.2789 -75.0717 17° North 342 394 11,500 -2,160 Descending FlightAware ADS-B
12:13AM 39.2902 -75.0671 18° North 340 391 11,300 -1,920 Descending FlightAware ADS-B
12:13AM 39.3018 -75.0623 17° North 338 389 11,000 -1,500 Descending FlightAware ADS-B
12:14AM 39.3479 -75.0436 17° North 324 373 10,300 -1,020 Descending FlightAware ADS-B
12:14AM 39.3888 -75.0272 14° North 296 341 10,000 -600 Descending FlightAware ADS-B
12:14AM 39.3927 -75.0259 11° North 294 338 10,000  Level FlightAware ADS-B
12:14AM 39.3967 -75.0249 10° North 293 337 10,000  Level FlightAware ADS-B
12:14AM 39.4022 -75.0237 North 292 336 10,000 -900 Level FlightAware ADS-B
12:14AM 39.4063 -75.0232 North 292 336 9,900 -720 Descending FlightAware ADS-B
12:14AM 39.4143 -75.0226 North 291 335 9,900 -600 Level FlightAware ADS-B
12:14AM 39.4195 -75.0225 357° North 289 333 9,800 -1,500 Descending FlightAware ADS-B
12:14AM 39.4257 -75.0229 355° North 283 326 9,700 -720 Descending FlightAware ADS-B
12:15AM 39.4314 -75.0236 353° North 279 321 9,700 -720 Level FlightAware ADS-B
12:15AM 39.4477 -75.0261 354° North 273 314 9,500 -1,080 Descending FlightAware ADS-B
12:15AM 39.4666 -75.0288 354° North 269 310 9,200 -1,200 Descending FlightAware ADS-B
12:15AM 39.4852 -75.0315 354° North 266 306 8,900 -1,380 Descending FlightAware ADS-B
12:16AM 39.5045 -75.0343 353° North 264 304 8,500 -1,560 Descending FlightAware ADS-B
12:16AM 39.5229 -75.0371 354° North 262 302 8,100 -1,680 Descending FlightAware ADS-B
12:16AM 39.5395 -75.0395 354° North 263 303 7,700 -1,500 Descending FlightAware ADS-B
12:16AM 39.5518 -75.0413 355° North 263 303 7,500 -1,500 Descending FlightAware ADS-B
12:16AM 39.5682 -75.0432 355° North 262 302 7,100 -1,440 Descending FlightAware ADS-B
12:17AM 39.5821 -75.0447 354° North 260 299 6,900 -1,200 Descending FlightAware ADS-B
12:17AM 39.5999 -75.0472 353° North 254 292 6,600 -1,200 Descending FlightAware ADS-B
12:17AM 39.6177 -75.0502 352° North 251 289 6,300 -1,200 Descending FlightAware ADS-B
12:17AM 39.6350 -75.0533 353° North 248 285 6,000 -1,560 Descending FlightAware ADS-B
12:18AM 39.6532 -75.0562 353° North 248 285 5,500 -1,800 Descending FlightAware ADS-B
12:18AM 39.6707 -75.0589 354° North 252 290 5,100 -1,740 Descending FlightAware ADS-B
12:18AM 39.6940 -75.0622 354° North 252 290 4,500 -1,560 Descending FlightAware ADS-B
12:19AM 39.7434 -75.0687 353° North 252 290 3,500 -1,320 Descending FlightAware ADS-B
12:19AM 39.7569 -75.0708 353° North 243 280 3,300 -1,200 Descending FlightAware ADS-B
12:19AM 39.7723 -75.0733 353° North 240 276 3,000 -1,680 Descending FlightAware ADS-B
12:20AM 39.7889 -75.0760 352° North 240 276 2,500 -1,500 Descending FlightAware ADS-B
12:20AM 39.8027 -75.0784 352° North 236 272 2,300 -780 Descending FlightAware ADS-B
12:20AM 39.8147 -75.0806 352° North 228 262 2,200 -480 Descending FlightAware ADS-B
12:20AM 39.8303 -75.0833 353° North 216 249 2,100 -540 Descending FlightAware ADS-B
12:20AM 39.8375 -75.0845 347° North 212 244 2,000 -360 Descending FlightAware ADS-B
12:21AM 39.8460 -75.0870 343° North 204 235 2,000  Level FlightAware ADS-B
12:21AM 39.8507 -75.0889 336° Northwest 200 230 2,000  Level FlightAware ADS-B
12:21AM 39.8565 -75.0922 335° Northwest 189 217 2,000 -780 Level FlightAware ADS-B
12:21AM 39.8688 -75.0998 332° Northwest 178 205 1,700 -1,080 Descending FlightAware ADS-B
12:21AM 39.8734 -75.1030 327° Northwest 175 201 1,600 -1,140 Descending FlightAware ADS-B
12:21AM 39.8766 -75.1057 322° Northwest 172 198 1,500 -780 Descending FlightAware ADS-B
12:21AM 39.8784 -75.1075 317° Northwest 169 194 1,500 -780 Level FlightAware ADS-B
12:21AM 39.8811 -75.1108 309° West 168 193 1,400 -780 Descending FlightAware ADS-B
12:21AM 39.8827 -75.1134 302° West 166 191 1,400 -900 Level FlightAware ADS-B
12:21AM 39.8841 -75.1163 297° West 165 190 1,300 -900 Descending FlightAware ADS-B
12:22AM 39.8852 -75.1191 292° West 163 188 1,300 -1,020 Level FlightAware ADS-B
12:22AM 39.8861 -75.1220 287° West 161 185 1,200 -900 Descending FlightAware ADS-B
12:22AM 39.8870 -75.1259 282° West 159 183 1,200 -780 Level FlightAware ADS-B
12:22AM 39.8876 -75.1295 276° West 157 181 1,100 -780 Descending FlightAware ADS-B
12:22AM 39.8879 -75.1333 276° West 153 176 1,100 -600 Level FlightAware ADS-B
12:22AM 39.8884 -75.1396 275° West 147 169 1,000 -480 Descending FlightAware ADS-B
12:22AM 39.8887 -75.1441 272° West 143 165 1,000  Level FlightAware ADS-B
12:22AM 39.8888 -75.1475 267° West 143 165 1,000 -720 Level FlightAware ADS-B
12:22AM 39.8886 -75.1523 262° West 144 166 900 -720 Descending FlightAware ADS-B
12:22AM 39.8882 -75.1558 261° West 144 166 900 -780 Level FlightAware ADS-B
12:22AM 39.8878 -75.1592 257° West 145 167 800 -720 Descending FlightAware ADS-B
12:22AM 39.8871 -75.1632 256° West 144 166 800 -900 Level FlightAware ADS-B
12:23AM 39.8846 -75.1760 256° West 146 168 500 -900 Descending FlightAware ADS-B
12:23AM 39.8827 -75.1858 255° West 145 167 400 -660 Descending FlightAware ADS-B
12:23AM 39.8814 -75.1923 254° West 145 167 300 -780 Descending FlightAware ADS-B
12:23AM 39.8799 -75.1993 256° West 144 166 200 -300 Descending FlightAware ADS-B
12:24AM 39.8767 -75.2164 256° West 143 165 100 -180 Descending FAA TRACON SMA TRACON (SMA)